Página principal
METAR-TAF:

METAR-TAF

Aeroportos :

Foz do Iguaçu, Paraná, Brasil

Aeroporto Internacional de Foz do Iguaçu

latitude: 25-31S, longitude: 054-35W, altura: 180 m

Observação actual do tempo

O boletim foi feito há 43 minutos, às 23:00 UTC
Vento 8 kt de este
Temperatura 19°C
Humidade 94%
Pressão 1012 hPa
Visibilidade 10 km ou mais
Poucas nuvensa uma altura de 4000 ft
Nuvens fragmentadasa uma altura de 10000 ft

METAR: SBFI 192300Z 10008KT 9999 FEW040 BKN100 19/18 Q1012

Hora: 21:43 (23:43 UTC)

Previsão

O boletim foi feito há 2 horas e 13 minutos, às 21:30 UTC
Previsão válida de 20 às 00 UTC a 20 às 24 UTC
Vento 7 kt de es-sudeste
Visibilidade 10 km ou mais
Poucas nuvensa uma altura de 3000 ft

TAF: SBFI 192130Z 2000/2024 12007KT 9999 FEW030 TN19/2008Z TX27/2018Z RMK PDW

Observações e previsões do tempo de mais de 4000 aeroportos (mensagens METAR e TAF).

As estações disponíveis são os pontos amarelos e vermelhos sobre o mapa.

Mova o rato sobre o mapa para ver o nome da estação.

Depois clique no ponto para visualizar as observações e previsões meteorológicas.

Para alterar o mapa : clique nos botões verdes com uma cruz preta para aumentar o zoom; no botão verde com uma pitada de zoom; ou nas setas verdes para mapas adjacentes.


METAR-TAF: